sensor_id;sensor_type;location;lat;lon;timestamp;pressure;altitude;pressure_sealevel;temperature
60936;BMP280;46804;51.786;19.520;2023-06-26T00:03:13;158447.03;;;16.58
60936;BMP280;46804;51.786;19.520;2023-06-26T00:07:15;158435.44;;;16.54
60936;BMP280;46804;51.786;19.520;2023-06-26T00:11:16;158440.59;;;16.56
60936;BMP280;46804;51.786;19.520;2023-06-26T00:15:17;158445.75;;;16.58
60936;BMP280;46804;51.786;19.520;2023-06-26T00:19:18;158435.44;;;16.54
60936;BMP280;46804;51.786;19.520;2023-06-26T00:23:19;158447.03;;;16.58
60936;BMP280;46804;51.786;19.520;2023-06-26T00:27:20;158449.59;;;16.59
60936;BMP280;46804;51.786;19.520;2023-06-26T00:31:21;158454.75;;;16.61
60936;BMP280;46804;51.786;19.520;2023-06-26T00:35:21;158447.03;;;16.58
60936;BMP280;46804;51.786;19.520;2023-06-26T00:39:22;158439.31;;;16.55
60936;BMP280;46804;51.786;19.520;2023-06-26T00:43:25;158399.34;;;16.40
60936;BMP280;46804;51.786;19.520;2023-06-26T00:47:26;158392.88;;;16.37
60936;BMP280;46804;51.786;19.520;2023-06-26T00:51:28;158359.38;;;16.25
60936;BMP280;46804;51.786;19.520;2023-06-26T00:55:29;158360.69;;;16.25
60936;BMP280;46804;51.786;19.520;2023-06-26T00:59:30;158318.09;;;16.09
60936;BMP280;46804;51.786;19.520;2023-06-26T01:03:31;158289.75;;;15.98
60936;BMP280;46804;51.786;19.520;2023-06-26T01:07:33;158264.00;;;15.88
60936;BMP280;46804;51.786;19.520;2023-06-26T01:11:37;158264.00;;;15.88
60936;BMP280;46804;51.786;19.520;2023-06-26T01:15:41;158294.91;;;16.00
60936;BMP280;46804;51.786;19.520;2023-06-26T01:19:42;158294.91;;;16.00
60936;BMP280;46804;51.786;19.520;2023-06-26T01:24:07;158266.56;;;15.89
60936;BMP280;46804;51.786;19.520;2023-06-26T01:28:11;158269.16;;;15.90
60936;BMP280;46804;51.786;19.520;2023-06-26T01:32:14;158247.25;;;15.82
60936;BMP280;46804;51.786;19.520;2023-06-26T01:36:14;158236.94;;;15.78
60936;BMP280;46804;51.786;19.520;2023-06-26T01:40:15;158245.97;;;15.81
60936;BMP280;46804;51.786;19.520;2023-06-26T01:44:28;158226.63;;;15.74
60936;BMP280;46804;51.786;19.520;2023-06-26T01:48:45;158212.50;;;15.68
60936;BMP280;46804;51.786;19.520;2023-06-26T01:53:04;158191.84;;;15.61
60936;BMP280;46804;51.786;19.520;2023-06-26T01:57:08;158167.41;;;15.51
60936;BMP280;46804;51.786;19.520;2023-06-26T02:01:10;158135.19;;;15.39
60936;BMP280;46804;51.786;19.520;2023-06-26T02:05:11;158110.72;;;15.29
60936;BMP280;46804;51.786;19.520;2023-06-26T02:09:12;158083.69;;;15.19
60936;BMP280;46804;51.786;19.520;2023-06-26T02:13:13;158064.38;;;15.12
60936;BMP280;46804;51.786;19.520;2023-06-26T02:17:13;158057.84;;;15.09
60936;BMP280;46804;51.786;19.520;2023-06-26T02:21:14;158066.94;;;15.13
60936;BMP280;46804;51.786;19.520;2023-06-26T02:25:15;158061.78;;;15.11
60936;BMP280;46804;51.786;19.520;2023-06-26T02:29:16;158059.19;;;15.10
60936;BMP280;46804;51.786;19.520;2023-06-26T02:33:17;158091.41;;;15.22
60936;BMP280;46804;51.786;19.520;2023-06-26T02:37:18;158110.72;;;15.29
60936;BMP280;46804;51.786;19.520;2023-06-26T02:41:19;158124.88;;;15.35
60936;BMP280;46804;51.786;19.520;2023-06-26T02:45:19;158101.69;;;15.26
60936;BMP280;46804;51.786;19.520;2023-06-26T02:49:20;158073.38;;;15.15
60936;BMP280;46804;51.786;19.520;2023-06-26T02:53:21;158066.94;;;15.13
60936;BMP280;46804;51.786;19.520;2023-06-26T02:57:21;158087.56;;;15.21
60936;BMP280;46804;51.786;19.520;2023-06-26T03:01:22;158099.16;;;15.25
60936;BMP280;46804;51.786;19.520;2023-06-26T03:05:23;158124.88;;;15.35
60936;BMP280;46804;51.786;19.520;2023-06-26T03:09:24;158140.34;;;15.41
60936;BMP280;46804;51.786;19.520;2023-06-26T03:13:25;158144.22;;;15.42
60936;BMP280;46804;51.786;19.520;2023-06-26T03:17:26;158160.97;;;15.49
60936;BMP280;46804;51.786;19.520;2023-06-26T03:21:26;158176.38;;;15.55
60936;BMP280;46804;51.786;19.520;2023-06-26T03:25:27;158175.13;;;15.54
60936;BMP280;46804;51.786;19.520;2023-06-26T03:29:28;158190.59;;;15.60
60936;BMP280;46804;51.786;19.520;2023-06-26T03:33:30;158215.03;;;15.69
60936;BMP280;46804;51.786;19.520;2023-06-26T03:37:31;158222.75;;;15.72
60936;BMP280;46804;51.786;19.520;2023-06-26T03:41:31;158242.09;;;15.80
60936;BMP280;46804;51.786;19.520;2023-06-26T03:45:32;158260.13;;;15.87
60936;BMP280;46804;51.786;19.520;2023-06-26T03:49:33;158269.16;;;15.90
60936;BMP280;46804;51.786;19.520;2023-06-26T03:53:34;158287.19;;;15.97
60936;BMP280;46804;51.786;19.520;2023-06-26T03:57:35;158323.25;;;16.11
60936;BMP280;46804;51.786;19.520;2023-06-26T04:01:36;158347.78;;;16.20
60936;BMP280;46804;51.786;19.520;2023-06-26T04:05:37;158372.28;;;16.30
60936;BMP280;46804;51.786;19.520;2023-06-26T04:09:38;158392.88;;;16.37
60936;BMP280;46804;51.786;19.520;2023-06-26T04:13:39;158410.97;;;16.44
60936;BMP280;46804;51.786;19.520;2023-06-26T04:17:40;158447.03;;;16.58
60936;BMP280;46804;51.786;19.520;2023-06-26T04:21:41;158485.72;;;16.73
60936;BMP280;46804;51.786;19.520;2023-06-26T04:25:41;158514.06;;;16.84
60936;BMP280;46804;51.786;19.520;2023-06-26T04:29:42;158545.00;;;16.96
60936;BMP280;46804;51.786;19.520;2023-06-26T04:33:43;158587.56;;;17.12
60936;BMP280;46804;51.786;19.520;2023-06-26T04:37:44;158596.59;;;17.15
60936;BMP280;46804;51.786;19.520;2023-06-26T04:41:45;158601.78;;;17.17
60936;BMP280;46804;51.786;19.520;2023-06-26T04:45:46;158622.41;;;17.25
60936;BMP280;46804;51.786;19.520;2023-06-26T04:49:47;158639.19;;;17.32
60936;BMP280;46804;51.786;19.520;2023-06-26T04:53:47;158672.72;;;17.44
60936;BMP280;46804;51.786;19.520;2023-06-26T04:57:48;158710.09;;;17.59
60936;BMP280;46804;51.786;19.520;2023-06-26T05:01:49;158743.63;;;17.71
60936;BMP280;46804;51.786;19.520;2023-06-26T05:05:50;158788.78;;;17.89
60936;BMP280;46804;51.786;19.520;2023-06-26T05:09:50;158830.06;;;18.04
60936;BMP280;46804;51.786;19.520;2023-06-26T05:13:51;158885.59;;;18.26
60936;BMP280;46804;51.786;19.520;2023-06-26T05:17:52;158947.56;;;18.49
60936;BMP280;46804;51.786;19.520;2023-06-26T05:21:54;159015.94;;;18.75
60936;BMP280;46804;51.786;19.520;2023-06-26T05:25:55;159112.84;;;19.12
60936;BMP280;46804;51.786;19.520;2023-06-26T05:29:56;159183.81;;;19.39
60936;BMP280;46804;51.786;19.520;2023-06-26T05:33:57;159261.34;;;19.69
60936;BMP280;46804;51.786;19.520;2023-06-26T05:37:59;159353.09;;;20.04
60936;BMP280;46804;51.786;19.520;2023-06-26T05:42:00;159484.88;;;20.54
60936;BMP280;46804;51.786;19.520;2023-06-26T05:46:00;159567.66;;;20.86
60936;BMP280;46804;51.786;19.520;2023-06-26T05:50:02;159671.09;;;21.25
60936;BMP280;46804;51.786;19.520;2023-06-26T05:54:03;159796.56;;;21.73
60936;BMP280;46804;51.786;19.520;2023-06-26T05:58:04;159868.97;;;22.01
60936;BMP280;46804;51.786;19.520;2023-06-26T06:02:05;159955.72;;;22.34
60936;BMP280;46804;51.786;19.520;2023-06-26T06:06:06;159931.09;;;22.24
60936;BMP280;46804;51.786;19.520;2023-06-26T06:10:06;159981.56;;;22.44
60936;BMP280;46804;51.786;19.520;2023-06-26T06:14:08;160069.56;;;22.77
60936;BMP280;46804;51.786;19.520;2023-06-26T06:18:09;160182.22;;;23.20
60936;BMP280;46804;51.786;19.520;2023-06-26T06:22:09;160166.66;;;23.14
60936;BMP280;46804;51.786;19.520;2023-06-26T06:26:10;160278.09;;;23.56
60936;BMP280;46804;51.786;19.520;2023-06-26T06:30:11;160333.78;;;23.78
60936;BMP280;46804;51.786;19.520;2023-06-26T06:34:12;160484.06;;;24.35
60936;BMP280;46804;51.786;19.520;2023-06-26T06:38:13;160651.22;;;24.98
60936;BMP280;46804;51.786;19.520;2023-06-26T06:42:14;160722.53;;;25.25
60936;BMP280;46804;51.786;19.520;2023-06-26T06:46:15;160534.88;;;25.32
60936;BMP280;46804;51.786;19.520;2023-06-26T06:50:15;155167.47;;;25.90
60936;BMP280;46804;51.786;19.520;2023-06-26T06:54:18;148540.25;;;26.28
60936;BMP280;46804;51.786;19.520;2023-06-26T06:58:19;139454.59;;;26.86
60936;BMP280;46804;51.786;19.520;2023-06-26T07:02:20;135267.66;;;27.14
60936;BMP280;46804;51.786;19.520;2023-06-26T07:06:20;128638.38;;;27.56
60936;BMP280;46804;51.786;19.520;2023-06-26T07:10:21;124813.25;;;27.86
60936;BMP280;46804;51.786;19.520;2023-06-26T07:14:22;128295.25;;;27.61
60936;BMP280;46804;51.786;19.520;2023-06-26T07:18:23;119940.81;;;28.20
60936;BMP280;46804;51.786;19.520;2023-06-26T07:22:24;110212.97;;;28.94
60936;BMP280;46804;51.786;19.520;2023-06-26T07:26:24;102230.03;;;29.55
60936;BMP280;46804;51.786;19.520;2023-06-26T07:30:25;96340.22;;;30.05
60936;BMP280;46804;51.786;19.520;2023-06-26T07:34:26;102234.13;;;29.58
60936;BMP280;46804;51.786;19.520;2023-06-26T07:38:27;107089.72;;;29.19
60936;BMP280;46804;51.786;19.520;2023-06-26T07:42:27;98073.38;;;29.91
60936;BMP280;46804;51.786;19.520;2023-06-26T07:46:28;91496.75;;;30.48
60936;BMP280;46804;51.786;19.520;2023-06-26T07:50:29;104659.59;;;29.37
60936;BMP280;46804;51.786;19.520;2023-06-26T07:54:29;86305.88;;;30.93
60936;BMP280;46804;51.786;19.520;2023-06-26T07:58:30;84231.81;;;31.12
60936;BMP280;46804;51.786;19.520;2023-06-26T08:02:31;80779.53;;;31.48
60936;BMP280;46804;51.786;19.520;2023-06-26T08:06:32;88726.22;;;30.71
60936;BMP280;46804;51.786;19.520;2023-06-26T08:10:32;94262.69;;;30.22
60936;BMP280;46804;51.786;19.520;2023-06-26T08:14:33;88034.75;;;30.77
60936;BMP280;46804;51.786;19.520;2023-06-26T08:18:34;83539.19;;;31.18
60936;BMP280;46804;51.786;19.520;2023-06-26T08:22:35;82849.94;;;31.26
60936;BMP280;46804;51.786;19.520;2023-06-26T08:26:36;79737.94;;;31.53
60936;BMP280;46804;51.786;19.520;2023-06-26T08:30:37;80085.13;;;31.51
60936;BMP280;46804;51.786;19.520;2023-06-26T08:34:38;75941.78;;;31.92
60936;BMP280;46804;51.786;19.520;2023-06-26T08:38:39;71462.53;;;32.44
60936;BMP280;46804;51.786;19.520;2023-06-26T08:42:43;72151.19;;;32.36
60936;BMP280;46804;51.786;19.520;2023-06-26T08:46:44;71807.13;;;32.40
60936;BMP280;46804;51.786;19.520;2023-06-26T08:50:48;78011.16;;;31.70
60936;BMP280;46804;51.786;19.520;2023-06-26T08:54:55;70084.06;;;32.60
60936;BMP280;46804;51.786;19.520;2023-06-26T08:58:56;54921.56;;;34.35
60936;BMP280;46804;51.786;19.520;2023-06-26T09:02:57;60434.00;;;33.70
60936;BMP280;46804;51.786;19.520;2023-06-26T09:06:59;68707.25;;;32.77
60936;BMP280;46804;51.786;19.520;2023-06-26T09:11:00;68018.56;;;32.86
60936;BMP280;46804;51.786;19.520;2023-06-26T09:15:01;56642.06;;;34.12
60936;BMP280;46804;51.786;19.520;2023-06-26T09:19:03;58364.78;;;33.92
60936;BMP280;46804;51.786;19.520;2023-06-26T09:23:05;44244.31;;;35.67
60936;BMP280;46804;51.786;19.520;2023-06-26T09:27:06;35983.63;;;36.82
60936;BMP280;46804;51.786;19.520;2023-06-26T09:31:07;48031.88;;;35.18
60936;BMP280;46804;51.786;19.520;2023-06-26T09:35:08;44590.09;;;35.64
60936;BMP280;46804;51.786;19.520;2023-06-26T09:39:09;35295.44;;;36.93
60936;BMP280;46804;51.786;19.520;2023-06-26T09:43:13;34262.38;;;37.07
60936;BMP280;46804;51.786;19.520;2023-06-26T09:47:19;28065.34;;;37.99
60936;BMP280;46804;51.786;19.520;2023-06-26T09:51:22;31166.28;;;37.57
60936;BMP280;46804;51.786;19.520;2023-06-26T09:55:23;46655.81;;;35.37
60936;BMP280;46804;51.786;19.520;2023-06-26T09:59:24;47685.69;;;35.20
60936;BMP280;46804;51.786;19.520;2023-06-26T10:03:25;38735.56;;;36.40
60936;BMP280;46804;51.786;19.520;2023-06-26T10:07:26;27721.53;;;38.06
60936;BMP280;46804;51.786;19.520;2023-06-26T10:11:40;38736.22;;;36.41
60936;BMP280;46804;51.786;19.520;2023-06-26T10:15:44;32541.38;;;37.33
60936;BMP280;46804;51.786;19.520;2023-06-26T10:19:46;29097.75;;;37.82
60936;BMP280;46804;51.786;19.520;2023-06-26T10:23:49;41492.34;;;36.07
60936;BMP280;46804;51.786;19.520;2023-06-26T10:27:57;43558.09;;;35.79
60936;BMP280;46804;51.786;19.520;2023-06-26T10:31:59;36670.88;;;36.70
60936;BMP280;46804;51.786;19.520;2023-06-26T10:36:19;48374.22;;;35.11
60936;BMP280;46804;51.786;19.520;2023-06-26T10:40:25;26001.75;;;38.37
60936;BMP280;46804;51.786;19.520;2023-06-26T10:44:26;21868.72;;;39.03
60936;BMP280;46804;51.786;19.520;2023-06-26T10:48:29;28066.97;;;38.03
60936;BMP280;46804;51.786;19.520;2023-06-26T10:52:29;32887.34;;;37.31
60936;BMP280;46804;51.786;19.520;2023-06-26T10:56:49;35639.69;;;36.88
60936;BMP280;46804;51.786;19.520;2023-06-26T11:00:50;30131.03;;;37.68
60936;BMP280;46804;51.786;19.520;2023-06-26T11:04:51;18080.78;;;39.72
60936;BMP280;46804;51.786;19.520;2023-06-26T11:08:59;39424.16;;;36.31
60936;BMP280;46804;51.786;19.520;2023-06-26T11:13:00;32885.44;;;37.27
60936;BMP280;46804;51.786;19.520;2023-06-26T11:17:03;35294.88;;;36.92
60936;BMP280;46804;51.786;19.520;2023-06-26T11:21:13;38736.84;;;36.42
60936;BMP280;46804;51.786;19.520;2023-06-26T11:25:14;56300.59;;;34.20
60936;BMP280;46804;51.786;19.520;2023-06-26T11:29:15;50440.59;;;34.86
60936;BMP280;46804;51.786;19.520;2023-06-26T11:33:15;45278.09;;;35.55
60936;BMP280;46804;51.786;19.520;2023-06-26T11:37:17;49410.22;;;35.02
60936;BMP280;46804;51.786;19.520;2023-06-26T11:41:18;48034.22;;;35.21
60936;BMP280;46804;51.786;19.520;2023-06-26T11:45:19;43899.25;;;35.70
60936;BMP280;46804;51.786;19.520;2023-06-26T11:49:21;31852.41;;;37.42
60936;BMP280;46804;51.786;19.520;2023-06-26T11:53:23;56988.53;;;34.10
60936;BMP280;46804;51.786;19.520;2023-06-26T11:57:24;57677.84;;;34.02
60936;BMP280;46804;51.786;19.520;2023-06-26T12:01:25;62503.31;;;33.48
60936;BMP280;46804;51.786;19.520;2023-06-26T12:05:26;42865.81;;;35.83
60936;BMP280;46804;51.786;19.520;2023-06-26T12:09:27;50786.91;;;34.84
60936;BMP280;46804;51.786;19.520;2023-06-26T12:13:28;49755.72;;;34.99
60936;BMP280;46804;51.786;19.520;2023-06-26T12:17:29;63539.28;;;33.38
60936;BMP280;46804;51.786;19.520;2023-06-26T12:25:38;41146.94;;;36.10
60936;BMP280;46804;51.786;19.520;2023-06-26T12:29:41;47687.59;;;35.23
60936;BMP280;46804;51.786;19.520;2023-06-26T12:33:43;37015.38;;;36.66
60936;BMP280;46804;51.786;19.520;2023-06-26T12:37:44;37361.09;;;36.64
60936;BMP280;46804;51.786;19.520;2023-06-26T12:41:52;36328.16;;;36.78
60936;BMP280;46804;51.786;19.520;2023-06-26T12:45:55;36326.38;;;36.75
60936;BMP280;46804;51.786;19.520;2023-06-26T12:49:56;47001.66;;;35.35
60936;BMP280;46804;51.786;19.520;2023-06-26T12:53:58;49751.31;;;34.94
60936;BMP280;46804;51.786;19.520;2023-06-26T12:57:58;50785.25;;;34.82
60936;BMP280;46804;51.786;19.520;2023-06-26T13:01:59;57332.25;;;34.05
60936;BMP280;46804;51.786;19.520;2023-06-26T13:06:00;38049.75;;;36.54
60936;BMP280;46804;51.786;19.520;2023-06-26T13:10:01;42179.81;;;35.96
60936;BMP280;46804;51.786;19.520;2023-06-26T13:14:02;32540.84;;;37.32
60936;BMP280;46804;51.786;19.520;2023-06-26T13:18:03;34605.22;;;37.00
60936;BMP280;46804;51.786;19.520;2023-06-26T13:22:04;34262.94;;;37.08
60936;BMP280;46804;51.786;19.520;2023-06-26T13:26:05;61813.03;;;33.55
60936;BMP280;46804;51.786;19.520;2023-06-26T13:30:07;46653.94;;;35.35
60936;BMP280;46804;51.786;19.520;2023-06-26T13:34:08;41836.09;;;36.01
60936;BMP280;46804;51.786;19.520;2023-06-26T13:38:08;43900.69;;;35.72
60936;BMP280;46804;51.786;19.520;2023-06-26T13:42:09;53887.56;;;34.47
60936;BMP280;46804;51.786;19.520;2023-06-26T13:46:10;58019.22;;;33.95
60936;BMP280;46804;51.786;19.520;2023-06-26T13:50:11;62847.47;;;33.43
60936;BMP280;46804;51.786;19.520;2023-06-26T13:54:11;66293.78;;;33.04
60936;BMP280;46804;51.786;19.520;2023-06-26T13:58:12;68362.63;;;32.81
60936;BMP280;46804;51.786;19.520;2023-06-26T14:02:14;56986.69;;;34.08
60936;BMP280;46804;51.786;19.520;2023-06-26T14:06:14;52851.47;;;34.56
60936;BMP280;46804;51.786;19.520;2023-06-26T14:10:15;64226.47;;;33.28
60936;BMP280;46804;51.786;19.520;2023-06-26T14:14:16;64225.47;;;33.27
60936;BMP280;46804;51.786;19.520;2023-06-26T14:18:17;61814.03;;;33.55
60936;BMP280;46804;51.786;19.520;2023-06-26T14:22:18;69397.63;;;32.70
60936;BMP280;46804;51.786;19.520;2023-06-26T14:26:19;64572.16;;;33.25
60936;BMP280;46804;51.786;19.520;2023-06-26T14:30:19;64916.81;;;33.21
60936;BMP280;46804;51.786;19.520;2023-06-26T14:34:20;70772.72;;;32.51
60936;BMP280;46804;51.786;19.520;2023-06-26T14:38:21;67675.53;;;32.91
60936;BMP280;46804;51.786;19.520;2023-06-26T14:42:21;66294.31;;;33.04
60936;BMP280;46804;51.786;19.520;2023-06-26T14:46:22;67331.44;;;32.95
60936;BMP280;46804;51.786;19.520;2023-06-26T14:50:23;79394.63;;;31.58
60936;BMP280;46804;51.786;19.520;2023-06-26T14:54:24;83883.81;;;31.14
60936;BMP280;46804;51.786;19.520;2023-06-26T14:58:24;79392.09;;;31.56
60936;BMP280;46804;51.786;19.520;2023-06-26T15:02:25;81467.47;;;31.39
60936;BMP280;46804;51.786;19.520;2023-06-26T15:06:27;84232.50;;;31.13
60936;BMP280;46804;51.786;19.520;2023-06-26T15:10:28;84923.16;;;31.06
60936;BMP280;46804;51.786;19.520;2023-06-26T15:14:29;78703.50;;;31.65
60936;BMP280;46804;51.786;19.520;2023-06-26T15:18:29;91491.59;;;30.45
60936;BMP280;46804;51.786;19.520;2023-06-26T15:22:30;96344.06;;;30.07
60936;BMP280;46804;51.786;19.520;2023-06-26T15:26:30;93573.97;;;30.31
60936;BMP280;46804;51.786;19.520;2023-06-26T15:30:31;96688.06;;;30.03
60936;BMP280;46804;51.786;19.520;2023-06-26T15:34:32;91149.84;;;30.51
60936;BMP280;46804;51.786;19.520;2023-06-26T15:38:32;98762.91;;;29.83
60936;BMP280;46804;51.786;19.520;2023-06-26T15:42:44;97033.59;;;29.99
60936;BMP280;46804;51.786;19.520;2023-06-26T15:46:45;98071.78;;;29.90
60936;BMP280;46804;51.786;19.520;2023-06-26T15:50:46;99110.03;;;29.80
60936;BMP280;46804;51.786;19.520;2023-06-26T15:54:46;92881.53;;;30.37
60936;BMP280;46804;51.786;19.520;2023-06-26T15:58:48;90110.69;;;30.59
60936;BMP280;46804;51.786;19.520;2023-06-26T16:02:49;89417.00;;;30.64
60936;BMP280;46804;51.786;19.520;2023-06-26T16:06:50;89075.16;;;30.70
60936;BMP280;46804;51.786;19.520;2023-06-26T16:10:53;90456.81;;;30.56
60936;BMP280;46804;51.786;19.520;2023-06-26T16:14:53;95304.44;;;30.15
60936;BMP280;46804;51.786;19.520;2023-06-26T16:18:54;95994.69;;;30.08
60936;BMP280;46804;51.786;19.520;2023-06-26T16:22:55;95993.94;;;30.08
60936;BMP280;46804;51.786;19.520;2023-06-26T16:26:56;103271.09;;;29.47
60936;BMP280;46804;51.786;19.520;2023-06-26T16:30:57;107781.22;;;29.12
60936;BMP280;46804;51.786;19.520;2023-06-26T16:34:58;99108.44;;;29.79
60936;BMP280;46804;51.786;19.520;2023-06-26T16:38:58;105006.97;;;29.35
60936;BMP280;46804;51.786;19.520;2023-06-26T16:43:01;115766.59;;;28.50
60936;BMP280;46804;51.786;19.520;2023-06-26T16:47:02;122375.75;;;28.02
60936;BMP280;46804;51.786;19.520;2023-06-26T16:51:05;128291.13;;;27.59
60936;BMP280;46804;51.786;19.520;2023-06-26T16:55:06;126896.19;;;27.68
60936;BMP280;46804;51.786;19.520;2023-06-26T16:59:07;129686.34;;;27.50
60936;BMP280;46804;51.786;19.520;2023-06-26T17:03:07;132125.91;;;27.33
60936;BMP280;46804;51.786;19.520;2023-06-26T17:07:08;135616.22;;;27.11
60936;BMP280;46804;51.786;19.520;2023-06-26T17:11:09;140150.97;;;26.80
60936;BMP280;46804;51.786;19.520;2023-06-26T17:15:10;141196.09;;;26.72
60936;BMP280;46804;51.786;19.520;2023-06-26T17:19:11;139101.41;;;26.86
60936;BMP280;46804;51.786;19.520;2023-06-26T17:23:13;138751.63;;;26.88
60936;BMP280;46804;51.786;19.520;2023-06-26T17:27:14;143643.66;;;26.58
60936;BMP280;46804;51.786;19.520;2023-06-26T17:31:21;142243.66;;;26.65
60936;BMP280;46804;51.786;19.520;2023-06-26T17:35:22;148886.94;;;26.24
60936;BMP280;46804;51.786;19.520;2023-06-26T17:39:22;148890.56;;;26.26
60936;BMP280;46804;51.786;19.520;2023-06-26T17:43:24;151946.28;;;26.10
60936;BMP280;46804;51.786;19.520;2023-06-26T17:47:25;153089.19;;;26.00
60936;BMP280;46804;51.786;19.520;2023-06-26T17:51:28;154854.75;;;25.90
60936;BMP280;46804;51.786;19.520;2023-06-26T17:55:28;154483.13;;;25.92
60936;BMP280;46804;51.786;19.520;2023-06-26T17:59:29;157074.31;;;25.72
60936;BMP280;46804;51.786;19.520;2023-06-26T18:03:29;159618.03;;;25.49
60936;BMP280;46804;51.786;19.520;2023-06-26T18:07:30;160430.28;;;25.34
60936;BMP280;46804;51.786;19.520;2023-06-26T18:11:32;160705.69;;;25.19
60936;BMP280;46804;51.786;19.520;2023-06-26T18:15:33;160640.84;;;24.94
60936;BMP280;46804;51.786;19.520;2023-06-26T18:19:34;160649.94;;;24.98
60936;BMP280;46804;51.786;19.520;2023-06-26T18:23:35;160626.63;;;24.89
60936;BMP280;46804;51.786;19.520;2023-06-26T18:27:39;160587.69;;;24.74
60936;BMP280;46804;51.786;19.520;2023-06-26T18:31:40;160587.69;;;24.74
60936;BMP280;46804;51.786;19.520;2023-06-26T18:35:41;160578.59;;;24.71
60936;BMP280;46804;51.786;19.520;2023-06-26T18:39:42;160587.69;;;24.74
60936;BMP280;46804;51.786;19.520;2023-06-26T18:43:42;160554.00;;;24.61
60936;BMP280;46804;51.786;19.520;2023-06-26T18:47:47;160573.47;;;24.69
60936;BMP280;46804;51.786;19.520;2023-06-26T18:51:50;160519.03;;;24.48
60936;BMP280;46804;51.786;19.520;2023-06-26T18:55:51;160421.81;;;24.11
60936;BMP280;46804;51.786;19.520;2023-06-26T18:59:52;160406.25;;;24.05
60936;BMP280;46804;51.786;19.520;2023-06-26T19:03:53;160340.25;;;23.80
60936;BMP280;46804;51.786;19.520;2023-06-26T19:07:53;160373.91;;;23.93
60936;BMP280;46804;51.786;19.520;2023-06-26T19:11:54;160372.59;;;23.92
60936;BMP280;46804;51.786;19.520;2023-06-26T19:15:55;160338.97;;;23.80
60936;BMP280;46804;51.786;19.520;2023-06-26T19:19:56;160354.47;;;23.86
60936;BMP280;46804;51.786;19.520;2023-06-26T19:23:57;160333.78;;;23.78
60936;BMP280;46804;51.786;19.520;2023-06-26T19:27:58;160307.84;;;23.68
60936;BMP280;46804;51.786;19.520;2023-06-26T19:31:59;160318.22;;;23.72
60936;BMP280;46804;51.786;19.520;2023-06-26T19:36:01;160305.28;;;23.67
60936;BMP280;46804;51.786;19.520;2023-06-26T19:40:03;160300.09;;;23.65
60936;BMP280;46804;51.786;19.520;2023-06-26T19:44:04;160315.59;;;23.71
60936;BMP280;46804;51.786;19.520;2023-06-26T19:48:05;160307.84;;;23.68
60936;BMP280;46804;51.786;19.520;2023-06-26T19:52:06;160333.78;;;23.78
60936;BMP280;46804;51.786;19.520;2023-06-26T19:56:07;160328.59;;;23.76
60936;BMP280;46804;51.786;19.520;2023-06-26T20:00:09;160328.59;;;23.76
60936;BMP280;46804;51.786;19.520;2023-06-26T20:04:09;160285.84;;;23.59
60936;BMP280;46804;51.786;19.520;2023-06-26T20:08:10;160303.97;;;23.66
60936;BMP280;46804;51.786;19.520;2023-06-26T20:12:11;160293.63;;;23.62
60936;BMP280;46804;51.786;19.520;2023-06-26T20:16:12;160236.63;;;23.41
60936;BMP280;46804;51.786;19.520;2023-06-26T20:20:13;160169.28;;;23.15
60936;BMP280;46804;51.786;19.520;2023-06-26T20:24:14;160143.38;;;23.05
60936;BMP280;46804;51.786;19.520;2023-06-26T20:28:15;160199.06;;;23.26
60936;BMP280;46804;51.786;19.520;2023-06-26T20:32:16;160223.63;;;23.36
60936;BMP280;46804;51.786;19.520;2023-06-26T20:36:17;160208.13;;;23.30
60936;BMP280;46804;51.786;19.520;2023-06-26T20:40:18;160222.34;;;23.35
60936;BMP280;46804;51.786;19.520;2023-06-26T20:44:20;160204.22;;;23.28
60936;BMP280;46804;51.786;19.520;2023-06-26T20:48:21;160162.81;;;23.13
60936;BMP280;46804;51.786;19.520;2023-06-26T20:52:23;160126.56;;;22.99
60936;BMP280;46804;51.786;19.520;2023-06-26T20:56:26;160134.34;;;23.02
60936;BMP280;46804;51.786;19.520;2023-06-26T21:00:28;160158.94;;;23.11
60936;BMP280;46804;51.786;19.520;2023-06-26T21:04:28;160169.28;;;23.15
60936;BMP280;46804;51.786;19.520;2023-06-26T21:08:29;160178.31;;;23.18
60936;BMP280;46804;51.786;19.520;2023-06-26T21:12:30;160158.94;;;23.11
60936;BMP280;46804;51.786;19.520;2023-06-26T21:16:31;160157.66;;;23.11
60936;BMP280;46804;51.786;19.520;2023-06-26T21:20:31;160144.72;;;23.06
60936;BMP280;46804;51.786;19.520;2023-06-26T21:24:32;160147.28;;;23.07
60936;BMP280;46804;51.786;19.520;2023-06-26T21:28:33;160047.59;;;22.69
60936;BMP280;46804;51.786;19.520;2023-06-26T21:32:34;160026.88;;;22.61
60936;BMP280;46804;51.786;19.520;2023-06-26T21:36:34;160003.59;;;22.52
60936;BMP280;46804;51.786;19.520;2023-06-26T21:40:35;159979.00;;;22.43
60936;BMP280;46804;51.786;19.520;2023-06-26T21:44:36;159980.28;;;22.43
60936;BMP280;46804;51.786;19.520;2023-06-26T21:48:37;159969.94;;;22.39
60936;BMP280;46804;51.786;19.520;2023-06-26T21:52:39;159955.72;;;22.34
60936;BMP280;46804;51.786;19.520;2023-06-26T21:56:39;159954.41;;;22.33
60936;BMP280;46804;51.786;19.520;2023-06-26T22:00:40;159953.13;;;22.33
60936;BMP280;46804;51.786;19.520;2023-06-26T22:04:41;159972.50;;;22.40
60936;BMP280;46804;51.786;19.520;2023-06-26T22:08:41;160011.31;;;22.55
60936;BMP280;46804;51.786;19.520;2023-06-26T22:12:42;160043.69;;;22.67
60936;BMP280;46804;51.786;19.520;2023-06-26T22:16:44;160050.16;;;22.70
60936;BMP280;46804;51.786;19.520;2023-06-26T22:20:45;160030.75;;;22.62
60936;BMP280;46804;51.786;19.520;2023-06-26T22:24:46;159896.13;;;22.11
60936;BMP280;46804;51.786;19.520;2023-06-26T22:28:46;159814.66;;;21.80
60936;BMP280;46804;51.786;19.520;2023-06-26T22:32:48;159668.47;;;21.24
60936;BMP280;46804;51.786;19.520;2023-06-26T22:36:48;159546.97;;;20.78
60936;BMP280;46804;51.786;19.520;2023-06-26T22:40:49;159439.66;;;20.37
60936;BMP280;46804;51.786;19.520;2023-06-26T22:44:50;159305.31;;;19.86